Time;durP1;ratioP1;P1;durP2;ratioP2;P2;SDS_P1;SDS_P2;PMS_P1;PMS_P2;Temp;Humidity;BMP_temperature;BMP_pressure;BME280_temperature;BME280_humidity;BME280_pressure;Samples;Min_cycle;Max_cycle;Signal;HPM_P1;HPM_P2
2023/11/26 00:02:12;;;;;;;6.18;1.75;;;20.40;37.90;;;;;;5001501;28;20105;-65
2023/11/26 00:04:38;;;;;;;5.35;1.40;;;20.30;38.00;;;;;;4997544;28;20044;-65
2023/11/26 00:07:05;;;;;;;5.68;1.63;;;20.30;38.30;;;;;;4997142;28;20506;-66
2023/11/26 00:09:34;;;;;;;4.55;1.40;;;20.20;38.70;;;;;;4997129;28;20103;-63
2023/11/26 00:12:03;;;;;;;6.43;1.50;;;20.10;38.40;;;;;;4994771;28;20500;-65
2023/11/26 00:14:30;;;;;;;7.68;1.70;;;20.00;38.80;;;;;;4996204;28;20052;-63
2023/11/26 00:16:56;;;;;;;12.02;2.15;;;19.90;38.80;;;;;;4996488;28;20133;-65
2023/11/26 00:19:24;;;;;;;7.53;2.83;;;19.80;39.50;;;;;;5001366;28;20090;-64
2023/11/26 00:21:50;;;;;;;8.38;3.20;;;19.70;39.90;;;;;;4997596;28;20048;-64
2023/11/26 00:24:17;;;;;;;9.00;2.90;;;19.60;39.60;;;;;;4997387;28;20075;-65
2023/11/26 00:26:43;;;;;;;10.98;3.30;;;19.60;40.10;;;;;;4996745;28;20063;-64
2023/11/26 00:29:10;;;;;;;6.80;3.22;;;19.40;40.30;;;;;;4999094;28;20046;-65
2023/11/26 00:31:37;;;;;;;6.25;2.90;;;19.40;40.70;;;;;;4996774;28;20478;-65
2023/11/26 00:34:04;;;;;;;8.60;3.35;;;19.30;40.90;;;;;;4993700;28;20046;-67
2023/11/26 00:36:31;;;;;;;23.40;3.30;;;19.20;41.20;;;;;;4995394;28;20049;-66
2023/11/26 00:38:58;;;;;;;5.93;2.35;;;19.20;41.80;;;;;;4995250;28;20684;-66
2023/11/26 00:41:25;;;;;;;14.88;5.03;;;19.10;41.80;;;;;;4998721;28;20408;-63
2023/11/26 00:43:51;;;;;;;8.60;4.13;;;19.00;42.60;;;;;;4993951;28;20068;-63
2023/11/26 00:46:18;;;;;;;9.50;4.13;;;18.90;42.90;;;;;;4998964;28;20117;-66
2023/11/26 00:48:44;;;;;;;14.85;3.55;;;18.80;43.10;;;;;;4996823;28;20134;-63
2023/11/26 00:51:20;;;;;;;13.48;3.40;;;18.70;43.50;;;;;;4996400;28;20133;-65
2023/11/26 00:53:49;;;;;;;13.18;4.70;;;18.60;43.40;;;;;;4994226;28;20046;-65
2023/11/26 00:56:15;;;;;;;22.25;5.55;;;18.50;43.70;;;;;;4996908;28;20050;-68
2023/11/26 00:58:42;;;;;;;22.48;6.50;;;18.50;44.00;;;;;;4994596;28;20138;-65
2023/11/26 01:01:08;;;;;;;15.25;6.60;;;18.40;44.60;;;;;;4999491;28;20057;-64
2023/11/26 01:03:35;;;;;;;20.00;7.35;;;18.40;45.10;;;;;;4995933;28;20555;-69
2023/11/26 01:06:02;;;;;;;25.92;7.72;;;18.20;45.40;;;;;;4993823;28;20051;-64
2023/11/26 01:08:29;;;;;;;17.67;6.82;;;18.10;45.40;;;;;;4996339;28;20408;-66
2023/11/26 01:10:55;;;;;;;18.88;5.68;;;18.10;45.80;;;;;;5003194;28;20499;-64
2023/11/26 01:13:22;;;;;;;14.05;4.53;;;18.00;46.30;;;;;;5001783;28;20050;-66
2023/11/26 01:15:48;;;;;;;13.82;4.38;;;17.80;46.50;;;;;;4998715;28;20526;-65
2023/11/26 01:18:15;;;;;;;13.88;4.50;;;17.70;46.60;;;;;;4999669;28;20169;-67
2023/11/26 01:20:41;;;;;;;18.08;6.47;;;17.70;47.10;;;;;;4996712;28;20047;-66
2023/11/26 01:23:08;;;;;;;14.75;6.80;;;17.60;47.30;;;;;;4995285;28;20128;-64
2023/11/26 01:25:34;;;;;;;16.85;5.50;;;17.50;47.70;;;;;;4996526;28;20076;-66
2023/11/26 01:28:00;;;;;;;13.85;4.95;;;17.50;48.10;;;;;;5000980;28;20042;-62
2023/11/26 01:30:27;;;;;;;18.10;5.03;;;17.40;49.50;;;;;;4995325;28;20042;-66
2023/11/26 01:32:53;;;;;;;15.40;4.63;;;17.40;49.40;;;;;;4995473;28;20197;-63
2023/11/26 01:35:20;;;;;;;17.65;4.90;;;17.20;48.90;;;;;;4996875;28;20048;-62
2023/11/26 01:37:46;;;;;;;17.85;4.32;;;17.20;48.90;;;;;;4994523;28;20097;-66
2023/11/26 01:40:13;;;;;;;18.25;4.85;;;17.10;49.20;;;;;;4996542;28;20050;-66
2023/11/26 01:42:43;;;;;;;15.43;5.10;;;17.10;49.90;;;;;;4994372;28;20484;-66
2023/11/26 01:45:11;;;;;;;14.15;4.65;;;17.00;49.90;;;;;;4993716;28;20422;-66
2023/11/26 01:47:40;;;;;;;20.98;6.40;;;16.90;49.90;;;;;;4993658;28;20046;-63
2023/11/26 01:50:19;;;;;;;32.22;6.60;;;16.90;50.10;;;;;;4994787;28;20053;-64
2023/11/26 01:52:46;;;;;;;17.73;6.95;;;16.80;50.40;;;;;;4996681;28;20155;-64
2023/11/26 01:55:13;;;;;;;31.42;8.57;;;16.80;50.80;;;;;;4998837;28;20055;-62
2023/11/26 01:57:39;;;;;;;31.70;9.52;;;16.80;51.00;;;;;;4994712;28;20152;-65
2023/11/26 02:00:08;;;;;;;32.47;10.85;;;16.80;51.30;;;;;;5001060;28;20051;-65
2023/11/26 02:02:35;;;;;;;28.17;10.98;;;16.70;51.40;;;;;;4993352;28;20473;-67
2023/11/26 02:05:02;;;;;;;26.67;12.18;;;16.50;52.00;;;;;;4996318;28;20075;-63
2023/11/26 02:07:29;;;;;;;40.53;11.63;;;16.40;52.50;;;;;;4993929;28;20068;-64
2023/11/26 02:09:56;;;;;;;44.88;19.27;;;16.30;52.60;;;;;;4991895;28;20060;-65
2023/11/26 02:12:23;;;;;;;36.40;10.73;;;16.30;52.50;;;;;;4996876;28;20056;-67
2023/11/26 02:14:50;;;;;;;39.50;9.85;;;16.30;52.50;;;;;;4997216;28;20495;-62
2023/11/26 02:17:16;;;;;;;32.50;10.95;;;16.20;52.70;;;;;;4994041;28;20091;-61
2023/11/26 02:19:44;;;;;;;32.50;10.48;;;16.10;52.60;;;;;;4994268;28;20106;-62
2023/11/26 02:22:11;;;;;;;43.72;10.57;;;16.10;53.30;;;;;;4994389;28;20079;-65
2023/11/26 02:24:47;;;;;;;32.83;9.73;;;16.00;53.50;;;;;;4994145;28;20100;-63
2023/11/26 02:27:17;;;;;;;23.02;10.45;;;16.00;54.00;;;;;;4994475;28;20548;-65
2023/11/26 02:29:43;;;;;;;32.53;10.07;;;15.90;54.40;;;;;;4993646;28;20084;-65
2023/11/26 02:32:10;;;;;;;43.10;11.82;;;15.90;54.60;;;;;;4994945;28;20687;-64
2023/11/26 02:34:37;;;;;;;38.22;10.85;;;15.80;54.70;;;;;;4994156;28;20060;-62
2023/11/26 02:37:04;;;;;;;41.67;12.68;;;15.70;54.50;;;;;;4995934;28;20138;-66
2023/11/26 02:39:30;;;;;;;43.33;14.32;;;15.80;55.00;;;;;;4998362;28;20150;-65
2023/11/26 02:42:00;;;;;;;37.50;13.75;;;15.70;55.30;;;;;;4995615;28;20542;-67
2023/11/26 02:44:27;;;;;;;43.67;14.27;;;15.60;55.40;;;;;;4992044;28;20162;-66
2023/11/26 02:46:54;;;;;;;44.15;13.40;;;15.50;55.50;;;;;;4994893;28;20050;-65
2023/11/26 02:49:20;;;;;;;35.53;14.07;;;15.50;55.70;;;;;;4994101;28;20061;-66
2023/11/26 02:51:47;;;;;;;44.10;15.05;;;15.50;55.50;;;;;;4993298;28;20143;-67
2023/11/26 02:54:14;;;;;;;43.80;15.57;;;15.50;55.40;;;;;;4994113;28;20709;-64
2023/11/26 02:56:44;;;;;;;47.53;16.70;;;15.50;56.00;;;;;;4993282;28;20109;-67
2023/11/26 02:59:11;;;;;;;47.83;18.38;;;15.50;55.80;;;;;;4996150;28;20501;-64
2023/11/26 03:01:38;;;;;;;49.47;21.80;;;15.40;55.90;;;;;;4994394;28;20109;-66
2023/11/26 03:04:07;;;;;;;46.83;23.75;;;15.30;56.00;;;;;;4995542;28;20070;-66
2023/11/26 03:06:35;;;;;;;54.75;24.27;;;15.20;56.00;;;;;;4993952;28;20059;-63
2023/11/26 03:09:10;;;;;;;56.58;23.98;;;15.20;56.10;;;;;;4987458;28;20057;-59
2023/11/26 03:14:22;;;;;;;56.80;22.10;;;15.00;56.60;;;;;;4993447;28;20065;-65
2023/11/26 03:16:49;;;;;;;56.63;22.15;;;15.00;56.60;;;;;;4992645;28;20515;-67
2023/11/26 03:19:15;;;;;;;53.60;20.52;;;15.00;56.40;;;;;;4994627;28;20243;-68
2023/11/26 03:21:44;;;;;;;46.10;19.50;;;15.00;56.30;;;;;;4995107;28;20152;-67
2023/11/26 03:24:19;;;;;;;54.53;20.65;;;15.10;56.30;;;;;;4995148;28;20056;-66
2023/11/26 03:26:46;;;;;;;50.33;21.25;;;15.00;55.90;;;;;;4993762;28;20055;-65
2023/11/26 03:29:12;;;;;;;45.03;20.42;;;15.00;55.90;;;;;;4993551;28;20164;-63
2023/11/26 03:31:41;;;;;;;61.17;22.60;;;15.00;55.80;;;;;;4994793;28;20117;-63
2023/11/26 03:34:10;;;;;;;64.25;22.10;;;14.90;56.40;;;;;;4989906;28;20059;-64
2023/11/26 03:36:37;;;;;;;44.88;19.95;;;14.90;56.10;;;;;;4993640;28;20138;-64
2023/11/26 03:39:04;;;;;;;49.10;19.70;;;14.80;55.80;;;;;;4993031;28;20065;-64
2023/11/26 03:41:31;;;;;;;47.60;17.50;;;14.80;56.10;;;;;;4994984;28;20545;-67
2023/11/26 03:43:57;;;;;;;53.17;18.80;;;14.70;55.50;;;;;;4987059;28;20077;-66
2023/11/26 03:46:24;;;;;;;54.65;18.50;;;14.70;55.50;;;;;;4990808;28;20126;-66
2023/11/26 03:48:51;;;;;;;62.22;18.02;;;14.70;55.60;;;;;;4991424;28;20142;-66
2023/11/26 03:51:23;;;;;;;47.65;16.63;;;14.70;55.60;;;;;;4995000;28;20145;-66
2023/11/26 03:53:49;;;;;;;44.55;14.95;;;14.70;55.40;;;;;;4994984;28;20067;-65
2023/11/26 03:56:16;;;;;;;39.95;14.40;;;14.70;55.20;;;;;;4994265;28;20077;-66
2023/11/26 03:58:42;;;;;;;33.95;12.00;;;14.70;54.90;;;;;;4992681;28;20067;-66
2023/11/26 04:01:09;;;;;;;31.15;11.38;;;14.70;54.90;;;;;;4990625;28;20116;-65
2023/11/26 04:03:35;;;;;;;30.60;10.23;;;14.70;54.90;;;;;;4996499;28;20097;-65
2023/11/26 04:06:02;;;;;;;27.25;9.48;;;14.70;54.40;;;;;;4994376;28;20150;-64
2023/11/26 04:08:28;;;;;;;21.75;9.60;;;14.70;54.10;;;;;;4992179;28;20066;-66
2023/11/26 04:10:55;;;;;;;26.50;11.25;;;14.70;54.50;;;;;;4994219;28;20064;-67
2023/11/26 04:13:22;;;;;;;27.83;10.95;;;14.50;54.80;;;;;;4999363;28;20060;-64
2023/11/26 04:15:55;;;;;;;30.13;10.55;;;14.50;55.30;;;;;;4997818;28;20058;-66
2023/11/26 04:18:22;;;;;;;35.50;10.60;;;14.40;55.30;;;;;;4998211;28;20527;-65
2023/11/26 04:20:48;;;;;;;22.77;9.88;;;14.40;55.40;;;;;;4997527;28;20076;-66
2023/11/26 04:23:15;;;;;;;37.70;10.02;;;14.40;56.10;;;;;;5001616;28;20590;-65
2023/11/26 04:25:42;;;;;;;32.67;10.57;;;14.40;55.60;;;;;;4998283;28;20404;-68
2023/11/26 04:28:09;;;;;;;26.38;8.00;;;14.40;55.40;;;;;;4999860;28;20069;-65
2023/11/26 04:30:35;;;;;;;22.55;8.10;;;14.30;55.30;;;;;;4997486;28;20410;-62
2023/11/26 04:33:02;;;;;;;21.85;7.80;;;14.30;55.50;;;;;;5002749;28;20077;-66
2023/11/26 04:35:29;;;;;;;29.92;9.02;;;14.20;55.70;;;;;;4997792;28;20531;-66
2023/11/26 04:37:56;;;;;;;29.23;11.27;;;14.20;55.90;;;;;;5002707;28;20111;-65
2023/11/26 04:40:23;;;;;;;37.67;18.60;;;14.20;56.60;;;;;;4996964;28;20070;-66
2023/11/26 04:42:49;;;;;;;34.30;19.58;;;14.10;56.80;;;;;;4999588;28;20605;-60
2023/11/26 04:45:16;;;;;;;38.83;19.33;;;14.00;56.80;;;;;;5001083;28;20065;-69
2023/11/26 04:47:42;;;;;;;28.52;15.68;;;14.00;56.90;;;;;;4997837;28;20132;-65
2023/11/26 04:50:10;;;;;;;37.33;17.27;;;14.00;57.10;;;;;;4996352;28;20062;-66
2023/11/26 04:52:36;;;;;;;33.88;17.20;;;13.90;57.60;;;;;;5007661;28;20072;-66
2023/11/26 04:55:03;;;;;;;30.33;16.83;;;14.00;57.80;;;;;;4999679;28;20452;-65
2023/11/26 04:57:30;;;;;;;36.92;16.17;;;13.90;57.40;;;;;;4994974;28;20136;-65
2023/11/26 04:59:56;;;;;;;29.52;15.65;;;13.80;57.50;;;;;;4996689;28;20072;-63
2023/11/26 05:02:23;;;;;;;48.58;20.95;;;13.80;57.70;;;;;;4994352;28;20087;-62
2023/11/26 05:04:51;;;;;;;39.67;20.92;;;13.80;57.60;;;;;;4991685;28;20063;-57
2023/11/26 05:07:19;;;;;;;35.13;17.63;;;13.90;57.90;;;;;;4995391;28;20073;-58
2023/11/26 05:09:45;;;;;;;40.42;16.42;;;13.90;57.50;;;;;;4997278;28;20498;-59
2023/11/26 05:12:11;;;;;;;;;;;13.90;57.30;;;;;;4996685;28;20121;-57
2023/11/26 05:14:38;;;;;;;33.55;12.85;;;13.90;57.60;;;;;;4997758;28;19949;-60
2023/11/26 05:17:05;;;;;;;31.60;11.73;;;13.90;57.30;;;;;;4993930;28;20099;-59
2023/11/26 05:19:31;;;;;;;38.65;12.27;;;13.90;57.40;;;;;;4996899;28;20103;-59
2023/11/26 05:21:58;;;;;;;33.60;10.30;;;13.90;57.30;;;;;;4994856;28;20511;-58
2023/11/26 05:24:24;;;;;;;29.55;9.68;;;13.90;57.80;;;;;;4994168;28;20077;-59
2023/11/26 05:26:51;;;;;;;28.63;8.20;;;13.80;57.40;;;;;;4994991;28;20075;-60
2023/11/26 05:29:17;;;;;;;23.67;7.53;;;13.90;57.00;;;;;;5000491;28;20536;-60
2023/11/26 05:31:44;;;;;;;19.90;7.50;;;13.90;56.60;;;;;;4994116;28;20076;-58
2023/11/26 05:34:10;;;;;;;;;;;13.80;56.30;;;;;;4996348;28;20070;-57
2023/11/26 05:36:36;;;;;;;26.00;10.10;;;13.70;56.50;;;;;;4993007;28;19950;-58
2023/11/26 05:39:03;;;;;;;19.17;8.15;;;13.70;56.50;;;;;;4995036;28;20107;-58
2023/11/26 05:41:29;;;;;;;14.23;7.10;;;13.70;56.70;;;;;;4991706;28;20074;-56
2023/11/26 05:43:56;;;;;;;24.92;10.55;;;13.70;56.80;;;;;;5005530;28;20103;-57
2023/11/26 05:46:23;;;;;;;31.02;12.25;;;13.70;56.90;;;;;;4993945;28;20085;-55
2023/11/26 05:48:50;;;;;;;35.88;14.05;;;13.70;57.20;;;;;;5000236;28;21448;-57
2023/11/26 05:51:24;;;;;;;47.35;16.30;;;13.70;57.90;;;;;;4995976;28;20082;-58
2023/11/26 05:53:50;;;;;;;39.60;14.70;;;13.60;58.10;;;;;;4995228;28;20627;-60
2023/11/26 05:56:17;;;;;;;43.28;14.45;;;13.60;58.10;;;;;;4995912;28;20087;-55
2023/11/26 05:58:43;;;;;;;38.28;13.18;;;13.50;58.40;;;;;;4997033;28;20574;-57
2023/11/26 06:01:10;;;;;;;51.05;17.15;;;13.50;59.00;;;;;;4994725;28;20211;-59
2023/11/26 06:03:37;;;;;;;66.97;21.60;;;13.50;58.50;;;;;;4998554;28;20436;-60
2023/11/26 06:06:05;;;;;;;66.97;21.40;;;13.40;59.10;;;;;;4995131;28;20147;-58
2023/11/26 06:08:31;;;;;;;54.67;23.77;;;13.50;58.90;;;;;;4997255;28;20068;-61
2023/11/26 06:10:58;;;;;;;77.35;25.73;;;13.40;58.90;;;;;;4996650;28;20070;-58
2023/11/26 06:13:24;;;;;;;73.88;26.02;;;13.40;58.80;;;;;;4994524;28;20178;-61
2023/11/26 06:15:51;;;;;;;86.03;28.90;;;13.40;58.90;;;;;;4997123;28;20070;-59
2023/11/26 06:18:17;;;;;;;85.50;28.80;;;13.30;59.30;;;;;;4994457;28;20576;-59
2023/11/26 06:20:44;;;;;;;80.72;29.58;;;13.30;59.80;;;;;;4997703;28;20119;-57
2023/11/26 06:23:10;;;;;;;81.43;31.38;;;13.30;60.00;;;;;;4997673;28;20088;-58
2023/11/26 06:25:36;;;;;;;;;;;13.30;59.50;;;;;;4999091;28;20124;-61
2023/11/26 06:28:03;;;;;;;108.53;33.17;;;13.30;59.10;;;;;;5001847;28;19954;-60
2023/11/26 06:30:29;;;;;;;98.78;35.40;;;13.30;58.50;;;;;;5000374;28;20070;-58
2023/11/26 06:32:56;;;;;;;101.88;33.38;;;13.30;57.70;;;;;;4996126;28;20072;-56
2023/11/26 06:35:22;;;;;;;99.25;32.35;;;13.30;57.60;;;;;;4999919;28;20080;-57
2023/11/26 06:37:49;;;;;;;102.85;30.67;;;13.30;57.20;;;;;;4993774;28;20091;-61
2023/11/26 06:40:15;;;;;;;105.05;29.38;;;13.30;57.40;;;;;;5000568;28;20124;-58
2023/11/26 06:42:42;;;;;;;97.50;26.70;;;13.30;57.50;;;;;;4994041;28;20110;-61
2023/11/26 06:45:10;;;;;;;87.43;25.35;;;13.30;57.10;;;;;;4993960;28;20456;-57
2023/11/26 06:47:38;;;;;;;113.20;27.10;;;13.30;56.40;;;;;;4994498;28;20097;-59
2023/11/26 06:50:05;;;;;;;85.22;21.00;;;13.30;56.30;;;;;;4989747;28;20077;-58
2023/11/26 06:52:33;;;;;;;81.70;20.17;;;13.20;55.80;;;;;;4994730;28;20074;-60
2023/11/26 06:55:00;;;;;;;68.78;17.58;;;13.20;55.70;;;;;;4994267;28;20449;-58
2023/11/26 06:57:27;;;;;;;66.70;17.45;;;13.20;55.70;;;;;;4995347;28;20088;-61
2023/11/26 06:59:53;;;;;;;78.15;15.65;;;13.10;55.60;;;;;;5001315;28;20093;-58
2023/11/26 07:02:20;;;;;;;57.60;14.38;;;13.10;55.70;;;;;;4993878;28;20091;-56
2023/11/26 07:04:46;;;;;;;54.25;13.88;;;13.10;55.40;;;;;;4992360;28;20074;-58
2023/11/26 07:07:13;;;;;;;63.65;14.05;;;13.10;55.20;;;;;;4995976;28;20428;-57
2023/11/26 07:09:41;;;;;;;66.13;14.65;;;13.10;55.20;;;;;;4993861;28;20106;-58
2023/11/26 07:12:08;;;;;;;51.03;13.00;;;13.10;55.20;;;;;;4994844;28;20069;-59
2023/11/26 07:14:35;;;;;;;58.20;12.60;;;13.10;55.20;;;;;;4993271;28;20067;-58
2023/11/26 07:17:01;;;;;;;58.35;12.30;;;13.00;55.20;;;;;;4999408;28;20531;-63
2023/11/26 07:19:28;;;;;;;42.92;11.13;;;13.10;55.20;;;;;;4992953;28;20106;-59
2023/11/26 07:21:55;;;;;;;46.50;9.88;;;13.10;54.90;;;;;;4992856;28;20062;-57
2023/11/26 07:24:22;;;;;;;34.15;8.18;;;13.00;55.00;;;;;;4992089;28;20120;-59
2023/11/26 07:26:49;;;;;;;42.92;7.97;;;13.00;55.10;;;;;;4992811;28;20066;-59
2023/11/26 07:29:15;;;;;;;43.30;6.90;;;13.00;55.10;;;;;;4995916;28;20069;-60
2023/11/26 07:31:45;;;;;;;37.42;6.75;;;12.90;55.00;;;;;;4997713;28;20066;-60
2023/11/26 07:34:12;;;;;;;37.20;7.07;;;12.90;54.90;;;;;;4995324;28;20072;-61
2023/11/26 07:36:39;;;;;;;35.72;6.05;;;12.90;56.20;;;;;;4994175;28;20080;-59
2023/11/26 07:39:05;;;;;;;29.02;5.82;;;12.80;55.40;;;;;;4995030;28;20542;-59
2023/11/26 07:41:33;;;;;;;51.63;7.15;;;12.90;56.00;;;;;;4994813;28;20157;-58
2023/11/26 07:44:00;;;;;;;42.08;6.30;;;12.80;56.30;;;;;;4992242;28;20578;-59
2023/11/26 07:46:26;;;;;;;40.75;6.05;;;12.70;56.40;;;;;;4992465;28;20079;-62
2023/11/26 07:48:53;;;;;;;29.58;5.30;;;12.60;56.20;;;;;;4992983;28;20519;-60
2023/11/26 07:51:19;;;;;;;34.35;5.15;;;12.70;55.70;;;;;;4991843;28;20090;-58
2023/11/26 07:53:46;;;;;;;;;;;12.70;55.50;;;;;;4994185;28;20483;-57
2023/11/26 07:56:13;;;;;;;35.35;5.78;;;12.70;55.20;;;;;;4999023;28;20004;-60
2023/11/26 07:58:41;;;;;;;33.55;6.07;;;12.70;55.60;;;;;;5000329;28;20102;-59
2023/11/26 08:01:11;;;;;;;31.98;5.03;;;12.70;55.50;;;;;;4998148;28;20121;-58
2023/11/26 08:03:38;;;;;;;31.17;5.38;;;12.70;55.50;;;;;;4998575;28;20086;-60
2023/11/26 08:06:06;;;;;;;26.50;4.97;;;12.70;55.50;;;;;;4995908;28;20063;-56
2023/11/26 08:08:37;;;;;;;30.75;4.82;;;12.60;55.60;;;;;;4999873;28;20076;-57
2023/11/26 08:11:09;;;;;;;34.45;5.53;;;12.60;55.60;;;;;;5002500;28;20071;-59
2023/11/26 08:13:39;;;;;;;28.45;5.80;;;12.60;55.70;;;;;;4996458;28;20229;-56
2023/11/26 08:16:08;;;;;;;40.92;6.78;;;12.60;55.60;;;;;;4998106;28;20084;-59
2023/11/26 08:18:39;;;;;;;32.20;8.00;;;12.50;56.20;;;;;;4997780;28;20105;-56
2023/11/26 08:21:06;;;;;;;34.17;6.45;;;12.50;55.60;;;;;;4996333;28;20098;-57
2023/11/26 08:23:44;;;;;;;25.63;5.65;;;12.50;55.70;;;;;;4999193;28;20176;-60
2023/11/26 08:26:14;;;;;;;27.50;5.22;;;12.50;56.10;;;;;;4998777;28;20063;-59
2023/11/26 08:28:41;;;;;;;28.10;5.57;;;12.50;56.20;;;;;;4994977;28;20069;-60
2023/11/26 08:31:10;;;;;;;29.38;6.25;;;12.40;56.40;;;;;;4998405;28;20421;-59
2023/11/26 08:33:41;;;;;;;35.25;8.13;;;12.40;56.30;;;;;;4999091;28;20100;-57
2023/11/26 08:36:09;;;;;;;30.70;8.77;;;12.30;56.40;;;;;;4998689;28;20097;-59
2023/11/26 08:38:41;;;;;;;27.58;5.80;;;12.20;56.50;;;;;;4998307;28;20091;-58
2023/11/26 08:41:11;;;;;;;33.00;5.18;;;12.20;56.60;;;;;;4998767;28;20067;-60
2023/11/26 08:43:41;;;;;;;28.85;4.88;;;12.20;56.70;;;;;;4996400;28;20085;-62
2023/11/26 08:46:09;;;;;;;23.45;3.85;;;12.20;56.50;;;;;;4997354;28;20071;-59
2023/11/26 08:48:36;;;;;;;21.13;3.70;;;12.20;56.40;;;;;;4997225;28;20078;-58
2023/11/26 08:51:04;;;;;;;29.05;4.50;;;12.20;56.20;;;;;;4995128;28;20063;-61
2023/11/26 08:53:32;;;;;;;28.80;6.40;;;12.20;56.20;;;;;;4995842;28;21323;-59
2023/11/26 08:56:00;;;;;;;25.83;7.43;;;12.20;56.10;;;;;;4995729;28;20155;-61
2023/11/26 08:58:27;;;;;;;37.42;8.90;;;12.20;56.30;;;;;;4995736;28;20076;-60
2023/11/26 09:00:53;;;;;;;30.17;8.60;;;12.20;56.10;;;;;;4995749;28;20164;-61
2023/11/26 09:03:22;;;;;;;31.52;6.63;;;12.20;56.20;;;;;;4999104;28;20087;-61
2023/11/26 09:05:49;;;;;;;15.38;4.63;;;12.20;56.10;;;;;;4996575;28;20067;-58
2023/11/26 09:08:19;;;;;;;24.80;5.00;;;12.30;55.90;;;;;;4996149;28;20066;-60
2023/11/26 09:10:46;;;;;;;28.60;4.57;;;12.30;55.80;;;;;;4997189;28;20066;-59
2023/11/26 09:13:13;;;;;;;16.75;3.80;;;12.30;55.70;;;;;;4995095;28;20071;-59
2023/11/26 09:15:41;;;;;;;16.05;3.40;;;12.30;55.70;;;;;;4998761;28;20086;-62
2023/11/26 09:18:08;;;;;;;22.88;4.40;;;12.30;55.50;;;;;;4996506;28;20190;-59
2023/11/26 09:20:36;;;;;;;13.85;4.10;;;12.30;55.20;;;;;;4997110;28;20067;-61
2023/11/26 09:23:03;;;;;;;17.50;4.57;;;12.40;55.20;;;;;;4995578;28;20084;-62
2023/11/26 09:25:30;;;;;;;16.45;4.13;;;12.40;55.20;;;;;;4996616;28;20074;-61
2023/11/26 09:27:56;;;;;;;23.20;5.05;;;12.40;54.90;;;;;;4994843;28;20157;-59
2023/11/26 09:30:23;;;;;;;25.45;5.03;;;12.40;54.40;;;;;;4997872;28;20066;-59
2023/11/26 09:32:49;;;;;;;12.18;3.50;;;12.40;54.50;;;;;;4994608;28;20080;-62
2023/11/26 09:35:16;;;;;;;16.85;6.32;;;12.40;53.90;;;;;;4997067;28;20070;-60
2023/11/26 09:37:43;;;;;;;17.40;4.47;;;12.50;53.70;;;;;;4995995;28;20083;-61
2023/11/26 09:40:10;;;;;;;12.05;3.30;;;12.50;53.50;;;;;;4995722;28;20091;-60
2023/11/26 09:42:37;;;;;;;10.25;3.05;;;12.60;53.50;;;;;;4996018;28;20087;-60
2023/11/26 09:45:04;;;;;;;11.32;3.30;;;12.60;53.70;;;;;;4996755;28;20483;-60
2023/11/26 09:47:31;;;;;;;10.65;3.50;;;12.50;53.80;;;;;;4996785;28;20442;-61
2023/11/26 09:49:58;;;;;;;16.23;2.88;;;12.50;53.90;;;;;;4995340;28;20700;-60
2023/11/26 09:52:26;;;;;;;12.23;2.65;;;12.50;54.10;;;;;;4995292;28;20083;-58
2023/11/26 09:54:52;;;;;;;19.17;3.38;;;12.60;54.30;;;;;;4997797;28;20162;-59
2023/11/26 09:57:19;;;;;;;19.38;2.95;;;12.60;54.30;;;;;;4997986;28;20527;-59
2023/11/26 09:59:46;;;;;;;9.20;3.22;;;12.50;54.50;;;;;;4995913;28;20173;-60
2023/11/26 10:02:13;;;;;;;15.15;3.30;;;12.50;54.60;;;;;;4995183;28;20147;-58
2023/11/26 10:04:47;;;;;;;11.73;3.30;;;12.60;54.70;;;;;;5000792;28;20063;-59
2023/11/26 10:07:15;;;;;;;14.57;3.35;;;12.50;54.70;;;;;;4994168;28;20121;-60
2023/11/26 10:09:42;;;;;;;11.77;2.83;;;12.50;54.90;;;;;;5000216;28;20149;-59
2023/11/26 10:12:09;;;;;;;15.15;2.63;;;12.50;55.10;;;;;;4994896;28;20084;-59
2023/11/26 10:14:35;;;;;;;12.52;2.72;;;12.60;55.20;;;;;;4993246;28;20585;-60
2023/11/26 10:17:12;;;;;;;16.38;2.75;;;12.50;55.30;;;;;;4995151;28;20541;-60
2023/11/26 10:19:39;;;;;;;11.32;2.90;;;12.50;55.20;;;;;;5001203;28;20193;-60
2023/11/26 10:22:06;;;;;;;20.15;3.45;;;12.50;55.50;;;;;;4998666;28;20079;-59
2023/11/26 10:24:33;;;;;;;12.73;3.00;;;12.50;55.60;;;;;;4996654;28;20516;-60
2023/11/26 10:27:00;;;;;;;15.07;4.88;;;12.40;55.40;;;;;;4993590;28;20448;-61
2023/11/26 10:29:30;;;;;;;19.38;5.10;;;12.50;55.30;;;;;;5002150;28;20074;-62
2023/11/26 10:32:06;;;;;;;24.48;6.25;;;12.40;55.30;;;;;;4992788;28;20427;-54
2023/11/26 10:34:34;;;;;;;32.58;6.68;;;12.40;55.40;;;;;;4998605;28;20065;-60
2023/11/26 10:37:02;;;;;;;18.63;4.72;;;12.40;55.40;;;;;;4998235;28;20064;-59
2023/11/26 10:39:30;;;;;;;17.45;4.13;;;12.30;55.50;;;;;;4997215;28;20064;-63
2023/11/26 10:41:59;;;;;;;15.07;3.40;;;12.30;55.50;;;;;;4993855;28;20067;-59
2023/11/26 10:44:26;;;;;;;13.35;3.22;;;12.30;55.80;;;;;;4996620;28;20075;-59
2023/11/26 10:46:59;;;;;;;11.70;2.72;;;12.30;56.10;;;;;;4995766;28;20145;-61
2023/11/26 10:49:47;;;;;;;8.38;2.65;;;12.30;56.30;;;;;;4996281;28;20527;-61
2023/11/26 10:52:38;;;;;;;17.02;3.00;;;12.20;56.50;;;;;;4994413;28;20066;-59
2023/11/26 10:55:18;;;;;;;10.10;2.53;;;12.20;56.40;;;;;;4996926;28;20153;-58
2023/11/26 10:57:54;;;;;;;10.82;3.00;;;12.10;56.60;;;;;;4992949;28;20068;-59
2023/11/26 11:00:21;;;;;;;10.23;3.45;;;12.10;56.80;;;;;;4993702;28;20121;-61
2023/11/26 11:02:52;;;;;;;16.13;3.45;;;12.10;56.90;;;;;;4995802;28;20091;-59
2023/11/26 11:05:22;;;;;;;12.63;2.95;;;12.10;57.20;;;;;;4995324;28;20067;-59
2023/11/26 11:07:49;;;;;;;13.13;3.55;;;12.00;57.10;;;;;;4995245;28;20527;-60
2023/11/26 11:10:35;;;;;;;11.88;3.03;;;12.00;56.90;;;;;;4996716;28;20101;-59
2023/11/26 11:13:07;;;;;;;14.27;2.92;;;12.10;56.60;;;;;;4992985;28;20077;-60
2023/11/26 11:15:38;;;;;;;15.15;2.88;;;12.00;56.70;;;;;;4994661;28;20552;-61
2023/11/26 11:18:41;;;;;;;10.80;2.72;;;12.00;56.80;;;;;;4994253;28;20571;-59
2023/11/26 11:21:16;;;;;;;15.05;2.55;;;12.00;56.90;;;;;;4974980;28;20089;-59
2023/11/26 11:23:45;;;;;;;12.55;2.95;;;11.90;56.70;;;;;;4994163;28;20084;-60
2023/11/26 11:26:14;;;;;;;13.73;2.70;;;11.90;56.60;;;;;;4996132;28;20092;-60
2023/11/26 11:28:54;;;;;;;9.85;3.03;;;11.90;56.80;;;;;;5000107;28;20130;-61
2023/11/26 11:31:40;;;;;;;17.40;3.60;;;11.90;57.10;;;;;;5000137;28;20432;-58
2023/11/26 11:34:06;;;;;;;19.25;3.05;;;11.90;57.00;;;;;;4999892;28;20068;-60
2023/11/26 11:36:47;;;;;;;15.52;3.00;;;11.90;56.20;;;;;;4998263;28;20087;-57
2023/11/26 11:39:15;;;;;;;21.10;2.50;;;11.80;56.00;;;;;;4998612;28;20083;-61
2023/11/26 11:42:11;;;;;;;14.10;2.95;;;11.80;55.70;;;;;;4998790;28;20116;-62
2023/11/26 11:44:43;;;;;;;7.82;3.00;;;11.80;55.50;;;;;;4994810;28;20090;-61
2023/11/26 11:47:11;;;;;;;12.52;2.83;;;11.80;55.00;;;;;;5001273;28;20076;-63
2023/11/26 11:49:51;;;;;;;8.82;2.50;;;11.80;55.10;;;;;;4999316;28;20063;-59
2023/11/26 11:52:19;;;;;;;11.18;2.17;;;11.80;54.80;;;;;;4999444;28;20119;-59
2023/11/26 11:55:16;;;;;;;9.43;2.63;;;11.80;54.40;;;;;;5001501;28;20132;-60
2023/11/26 11:57:48;;;;;;;15.90;2.75;;;11.80;54.30;;;;;;4998143;28;20076;-57
2023/11/26 12:00:22;;;;;;;19.67;2.72;;;11.80;54.60;;;;;;4997355;28;20099;-61
2023/11/26 12:02:52;;;;;;;6.43;3.08;;;11.80;54.50;;;;;;4997734;28;20088;-60
2023/11/26 12:05:28;;;;;;;13.95;3.17;;;11.80;55.00;;;;;;4997667;28;20445;-60
2023/11/26 12:07:56;;;;;;;16.07;2.73;;;11.70;55.10;;;;;;4994237;28;20495;-56
2023/11/26 12:10:26;;;;;;;16.02;2.50;;;11.70;55.40;;;;;;4996989;28;20324;-59
2023/11/26 12:13:06;;;;;;;9.48;2.90;;;11.70;55.40;;;;;;4995614;28;20107;-61
2023/11/26 12:15:34;;;;;;;15.40;2.83;;;11.70;55.30;;;;;;4995110;28;20450;-58
2023/11/26 12:18:00;;;;;;;11.48;2.72;;;11.70;55.30;;;;;;4995604;28;20514;-58
2023/11/26 12:20:28;;;;;;;11.43;2.45;;;11.60;55.30;;;;;;4996285;28;20071;-60
2023/11/26 12:22:55;;;;;;;9.52;2.33;;;11.70;55.40;;;;;;4996516;28;20154;-60
2023/11/26 12:25:22;;;;;;;13.15;2.53;;;11.60;55.10;;;;;;4996525;28;20068;-61
2023/11/26 12:28:05;;;;;;;12.18;2.60;;;11.70;56.00;;;;;;4994873;28;20071;-60
2023/11/26 12:30:33;;;;;;;6.50;2.05;;;11.70;55.00;;;;;;4995935;28;20069;-61
2023/11/26 12:33:01;;;;;;;6.07;1.90;;;11.70;55.10;;;;;;4997893;28;20081;-61
2023/11/26 12:35:33;;;;;;;8.88;2.30;;;11.80;54.70;;;;;;4992667;28;20107;-59
2023/11/26 12:38:00;;;;;;;8.68;1.73;;;11.80;54.70;;;;;;4995419;28;20071;-61
2023/11/26 12:40:30;;;;;;;7.75;2.20;;;11.80;54.00;;;;;;4998088;28;20083;-61
2023/11/26 12:42:57;;;;;;;12.13;2.50;;;11.80;53.70;;;;;;5001980;28;20084;-61
2023/11/26 12:45:24;;;;;;;13.23;2.78;;;11.90;53.80;;;;;;4997114;28;20594;-62